Lowlands Queen — 3FTU4 — position and weather

sailwx.info

Track history (hours):
 
Tides and Currents Weather Stations Pressure Air Temp Water Temp Dewpoint Dewpoint Depression Visibility Wind Speed Wind Dir Waves Ship Positions

Lowlands Queen

Last reported at 2015-May-20 12:08 UTC. Time now 2015-May-22 09:59 UTC.
Position N 35°57' W 005°35'.

Length 225 m; draft 9.5 m.

Type: Cargo ship. MMSI: 370913000.

Date/timePositionNaut miles runAvg speedWind from/ knotsBaromVisibWave heightAir tempDewpointWater temp
2015-May-20 12:08N 35°57' W 005°35'712.3
2015-May-20 11:32N 36°00' W 005°27'5 5.3
2015-May-20 10:33N 36°05' W 005°25'0 0.1
2015-May-20 09:32N 36°05' W 005°25'0 0.0
2015-May-20 08:32N 36°05' W 005°25'0 0.1
2015-May-20 07:32N 36°05' W 005°25'0 0.0
2015-May-20 06:32N 36°05' W 005°25'0 0.0
2015-May-20 05:32N 36°05' W 005°25'0 0.3
2015-May-20 04:32N 36°05' W 005°25'0 0.1
2015-May-20 03:32N 36°05' W 005°25'0 0.0
2015-May-20 02:32N 36°05' W 005°25'0 0.1
2015-May-20 01:32N 36°05' W 005°25'0 0.0
2015-May-20 00:32N 36°05' W 005°25'0 0.1
2015-May-19 23:32N 36°05' W 005°25'0 0.1
2015-May-19 22:32N 36°05' W 005°25'1 1.1
2015-May-19 21:33N 36°05' W 005°23'2 2.2
2015-May-19 20:34N 36°05' W 005°21'6 5.6
2015-May-19 19:33N 36°05' W 005°14'1 1.3
2015-May-19 18:34N 36°04' W 005°15'1 1.0
2015-May-19 17:34N 36°03' W 005°14'2 2.5
2015-May-19 16:33N 36°04' W 005°17'2 1.5
2015-May-19 15:34N 36°04' W 005°19'1 1.4
2015-May-19 14:34N 36°05' W 005°20'8413.2
2015-May-19 08:14N 36°11' W 003°37'2515.0
2015-May-19 06:34N 36°12' W 003°06'1515.2
2015-May-19 05:34N 36°13' W 002°47'1515.2
2015-May-19 04:33N 36°14' W 002°28'1515.0
2015-May-19 03:33N 36°15' W 002°09'1514.9
2015-May-19 02:34N 36°19' W 001°52'1514.6
2015-May-19 01:30N 36°23' W 001°33'1414.9
2015-May-19 00:34N 36°26' W 001°16'1515.0
2015-May-18 23:33N 36°29' W 000°58'1514.7
2015-May-18 22:33N 36°33' W 000°40'1515.1
2015-May-18 21:33N 36°36' W 000°22'1515.1
2015-May-18 20:33N 36°40' W 000°03'1514.9
2015-May-18 19:33N 36°43' E 000°14'1515.2
2015-May-18 18:33N 36°47' E 000°33'1515.2
2015-May-18 17:33N 36°51' E 000°52'62212.7
2015-May-16 16:31N 36°25' E 013°46'1212.1
2015-May-16 15:33N 36°20' E 013°59'1313.6
2015-May-16 14:34N 36°13' E 014°14'1413.7
2015-May-16 13:33N 36°13' E 014°31'1413.8
2015-May-16 12:33N 36°13' E 014°48'11612.6
2015-May-16 03:20N 37°35' E 016°32'2513.0
2015-May-16 01:27N 37°55' E 016°50'1112.6
2015-May-16 00:33N 38°04' E 016°58'1313.3
2015-May-15 23:33N 38°15' E 017°08'1313.3
2015-May-15 22:33N 38°26' E 017°18'1912.8
2015-May-15 21:05N 38°41' E 017°32'712.4
2015-May-15 20:31N 38°48' E 017°34'2713.1
2015-May-15 18:28N 39°15' E 017°35'1212.9
2015-May-15 17:33N 39°27' E 017°32'1313.0
2015-May-15 16:33N 39°39' E 017°26'1312.5
2015-May-15 15:33N 39°50' E 017°20'1212.3
2015-May-15 14:33N 40°02' E 017°15'1312.7
2015-May-15 13:33N 40°14' E 017°09'15 1.5
2015-May-15 03:13N 40°29' E 017°12'0 0.0
2015-May-15 02:31N 40°29' E 017°12'  
Track history (hours):
 
Tides and Currents Weather Stations Pressure Air Temp Water Temp Dewpoint Dewpoint Depression Visibility Wind Speed Wind Dir Waves Ship Positions

Lowlands Queen

Last reported at 2015-May-20 12:08 UTC. Time now 2015-May-22 09:59 UTC.
Position N 35°57' W 005°35'.

Length 225 m; draft 9.5 m.

Type: Cargo ship. MMSI: 370913000.

Date/timePositionNaut miles runAvg speedWind from/ knotsBaromVisibWave heightAir tempDewpointWater temp
2015-May-20 12:08N 35°57' W 005°35'712.3
2015-May-20 11:32N 36°00' W 005°27'5 5.3
2015-May-20 10:33N 36°05' W 005°25'0 0.1
2015-May-20 09:32N 36°05' W 005°25'0 0.0
2015-May-20 08:32N 36°05' W 005°25'0 0.1
2015-May-20 07:32N 36°05' W 005°25'0 0.0
2015-May-20 06:32N 36°05' W 005°25'0 0.0
2015-May-20 05:32N 36°05' W 005°25'0 0.3
2015-May-20 04:32N 36°05' W 005°25'0 0.1
2015-May-20 03:32N 36°05' W 005°25'0 0.0
2015-May-20 02:32N 36°05' W 005°25'0 0.1
2015-May-20 01:32N 36°05' W 005°25'0 0.0
2015-May-20 00:32N 36°05' W 005°25'0 0.1
2015-May-19 23:32N 36°05' W 005°25'0 0.1
2015-May-19 22:32N 36°05' W 005°25'1 1.1
2015-May-19 21:33N 36°05' W 005°23'2 2.2
2015-May-19 20:34N 36°05' W 005°21'6 5.6
2015-May-19 19:33N 36°05' W 005°14'1 1.3
2015-May-19 18:34N 36°04' W 005°15'1 1.0
2015-May-19 17:34N 36°03' W 005°14'2 2.5
2015-May-19 16:33N 36°04' W 005°17'2 1.5
2015-May-19 15:34N 36°04' W 005°19'1 1.4
2015-May-19 14:34N 36°05' W 005°20'8413.2
2015-May-19 08:14N 36°11' W 003°37'2515.0
2015-May-19 06:34N 36°12' W 003°06'1515.2
2015-May-19 05:34N 36°13' W 002°47'1515.2
2015-May-19 04:33N 36°14' W 002°28'1515.0
2015-May-19 03:33N 36°15' W 002°09'1514.9
2015-May-19 02:34N 36°19' W 001°52'1514.6
2015-May-19 01:30N 36°23' W 001°33'1414.9
2015-May-19 00:34N 36°26' W 001°16'1515.0
2015-May-18 23:33N 36°29' W 000°58'1514.7
2015-May-18 22:33N 36°33' W 000°40'1515.1
2015-May-18 21:33N 36°36' W 000°22'1515.1
2015-May-18 20:33N 36°40' W 000°03'1514.9
2015-May-18 19:33N 36°43' E 000°14'1515.2
2015-May-18 18:33N 36°47' E 000°33'1515.2
2015-May-18 17:33N 36°51' E 000°52'62212.7
2015-May-16 16:31N 36°25' E 013°46'1212.1
2015-May-16 15:33N 36°20' E 013°59'1313.6
2015-May-16 14:34N 36°13' E 014°14'1413.7
2015-May-16 13:33N 36°13' E 014°31'1413.8
2015-May-16 12:33N 36°13' E 014°48'11612.6
2015-May-16 03:20N 37°35' E 016°32'2513.0
2015-May-16 01:27N 37°55' E 016°50'1112.6
2015-May-16 00:33N 38°04' E 016°58'1313.3
2015-May-15 23:33N 38°15' E 017°08'1313.3
2015-May-15 22:33N 38°26' E 017°18'1912.8
2015-May-15 21:05N 38°41' E 017°32'712.4
2015-May-15 20:31N 38°48' E 017°34'2713.1
2015-May-15 18:28N 39°15' E 017°35'1212.9
2015-May-15 17:33N 39°27' E 017°32'1313.0
2015-May-15 16:33N 39°39' E 017°26'1312.5
2015-May-15 15:33N 39°50' E 017°20'1212.3
2015-May-15 14:33N 40°02' E 017°15'1312.7
2015-May-15 13:33N 40°14' E 017°09'15 1.5
2015-May-15 03:13N 40°29' E 017°12'0 0.0
2015-May-15 02:31N 40°29' E 017°12'  

Dump ship's entire track history